createdAt,value
2023-11-17T00:01:03.943Z,2.42
2023-11-17T00:03:30.725Z,2.46
2023-11-17T00:05:57.458Z,2.44
2023-11-17T00:08:24.028Z,2.37
2023-11-17T00:10:50.603Z,2.32
2023-11-17T00:13:17.121Z,2.38
2023-11-17T00:15:43.782Z,2.47
2023-11-17T00:18:10.302Z,2.44
2023-11-17T00:20:36.834Z,2.38
2023-11-17T00:23:03.651Z,2.35
2023-11-17T00:25:30.278Z,2.31
2023-11-17T00:27:58.274Z,2.36
2023-11-17T00:30:26.015Z,2.42
2023-11-17T00:32:53.648Z,2.35
2023-11-17T00:35:21.013Z,2.26
2023-11-17T00:37:47.958Z,2.22
2023-11-17T00:40:14.725Z,2.20
2023-11-17T00:42:41.376Z,2.25
2023-11-17T00:45:09.375Z,2.30
2023-11-17T00:47:36.300Z,2.27
2023-11-17T00:50:11.315Z,2.25
2023-11-17T00:52:40.022Z,2.23
2023-11-17T00:55:08.343Z,2.21
2023-11-17T00:57:35.158Z,2.29
2023-11-17T01:00:02.025Z,2.30
2023-11-17T01:02:28.977Z,2.25
2023-11-17T01:04:55.808Z,2.21
2023-11-17T01:07:22.735Z,2.16
2023-11-17T01:09:49.890Z,2.12
2023-11-17T01:12:16.865Z,2.20
2023-11-17T01:14:43.670Z,2.28
2023-11-17T01:17:12.065Z,2.25
2023-11-17T01:19:40.907Z,2.19
2023-11-17T01:22:07.583Z,2.16
2023-11-17T01:24:34.262Z,2.12
2023-11-17T01:27:05.406Z,2.21
2023-11-17T01:29:32.904Z,2.29
2023-11-17T01:31:59.426Z,2.26
2023-11-17T01:34:29.102Z,2.20
2023-11-17T01:36:56.025Z,2.19
2023-11-17T01:39:22.897Z,2.15
2023-11-17T01:41:49.496Z,2.17
2023-11-17T01:44:16.266Z,2.19
2023-11-17T01:46:44.741Z,2.10
2023-11-17T01:49:13.166Z,1.99
2023-11-17T01:51:39.806Z,1.93
2023-11-17T01:54:06.513Z,1.92
2023-11-17T01:56:33.595Z,2.03
2023-11-17T01:59:00.184Z,2.11
2023-11-17T02:01:28.046Z,2.04
2023-11-17T02:03:56.502Z,1.94
2023-11-17T02:06:49.188Z,1.90
2023-11-17T02:09:38.157Z,1.91
2023-11-17T02:12:16.587Z,2.02
2023-11-17T02:14:46.686Z,2.05
2023-11-17T02:17:16.078Z,1.96
2023-11-17T02:19:45.877Z,1.89
2023-11-17T02:22:18.413Z,1.84
2023-11-17T02:25:02.116Z,1.81
2023-11-17T02:29:49.183Z,1.99
2023-11-17T02:32:17.895Z,1.99
2023-11-17T02:34:46.111Z,1.97
2023-11-17T02:37:13.609Z,1.94
2023-11-17T02:39:41.391Z,1.91
2023-11-17T02:42:12.107Z,1.91
2023-11-17T02:44:41.629Z,2.04
2023-11-17T02:47:21.168Z,2.11
2023-11-17T02:49:54.642Z,2.05
2023-11-17T02:52:25.326Z,2.01
2023-11-17T02:54:53.386Z,1.98
2023-11-17T02:57:23.822Z,1.96
2023-11-17T02:59:51.894Z,1.91
2023-11-17T03:02:21.047Z,1.93
2023-11-17T03:04:55.747Z,1.96
2023-11-17T03:07:23.444Z,1.91
2023-11-17T03:09:53.508Z,1.86
2023-11-17T03:12:21.611Z,1.78
2023-11-17T03:14:49.089Z,1.71
2023-11-17T03:17:16.567Z,1.77
2023-11-17T03:19:44.323Z,1.84
2023-11-17T03:22:15.196Z,1.79
2023-11-17T03:24:42.819Z,1.73
2023-11-17T03:27:12.629Z,1.67
2023-11-17T03:29:40.418Z,1.67
2023-11-17T03:32:09.126Z,1.75
2023-11-17T03:34:36.911Z,1.78
2023-11-17T03:37:05.237Z,1.74
2023-11-17T03:39:34.275Z,1.73
2023-11-17T03:42:02.179Z,1.69
2023-11-17T03:44:29.688Z,1.65
2023-11-17T03:46:57.571Z,1.76
2023-11-17T03:49:25.978Z,1.90
2023-11-17T03:51:55.044Z,1.94
2023-11-17T03:54:22.929Z,1.89
2023-11-17T03:56:50.821Z,1.83
2023-11-17T03:59:20.198Z,1.77
2023-11-17T04:01:47.897Z,1.77
2023-11-17T04:04:21.695Z,1.87
2023-11-17T04:06:52.272Z,1.94
2023-11-17T04:09:23.266Z,1.87
2023-11-17T04:11:53.253Z,1.80
2023-11-17T04:14:22.072Z,1.74
2023-11-17T04:16:51.025Z,1.70
2023-11-17T04:19:22.272Z,1.69
2023-11-17T04:21:50.972Z,1.76
2023-11-17T04:24:19.086Z,1.80
2023-11-17T04:26:47.816Z,1.78
2023-11-17T04:29:15.730Z,1.71
2023-11-17T04:31:43.526Z,1.64
2023-11-17T04:34:14.022Z,1.62
2023-11-17T04:36:41.660Z,1.61
2023-11-17T04:39:18.328Z,1.66
2023-11-17T04:41:49.809Z,1.71
2023-11-17T04:44:18.507Z,1.73
2023-11-17T04:46:46.105Z,1.77
2023-11-17T04:49:16.523Z,1.80
2023-11-17T04:51:50.145Z,1.80
2023-11-17T04:54:17.538Z,1.76
2023-11-17T04:56:44.969Z,1.86
2023-11-17T04:59:12.427Z,1.97
2023-11-17T05:01:40.114Z,2.00
2023-11-17T05:04:08.561Z,2.00
2023-11-17T05:06:37.752Z,1.97
2023-11-17T05:09:12.779Z,1.91
2023-11-17T05:11:40.426Z,1.90
2023-11-17T05:14:08.069Z,2.00
2023-11-17T05:16:36.815Z,2.09
2023-11-17T05:19:05.430Z,2.03
2023-11-17T05:21:33.949Z,1.93
2023-11-17T05:24:03.803Z,1.81
2023-11-17T05:26:31.568Z,1.76
2023-11-17T05:28:59.184Z,1.87
2023-11-17T05:31:29.824Z,2.00
2023-11-17T05:33:59.283Z,2.02
2023-11-17T05:36:27.547Z,1.94
2023-11-17T05:38:57.129Z,1.90
2023-11-17T05:41:27.111Z,1.89
2023-11-17T05:43:55.056Z,1.90
2023-11-17T05:46:23.016Z,2.04
2023-11-17T05:48:51.595Z,2.14
2023-11-17T05:51:19.307Z,2.13
2023-11-17T05:53:47.350Z,2.10
2023-11-17T05:56:17.453Z,2.10
2023-11-17T05:58:46.330Z,2.09
2023-11-17T06:01:15.293Z,2.16
2023-11-17T06:03:43.098Z,2.25
2023-11-17T06:06:10.809Z,2.19
2023-11-17T06:08:38.859Z,2.08
2023-11-17T06:11:10.195Z,2.04
2023-11-17T06:13:41.795Z,1.99
2023-11-17T06:16:09.734Z,2.05
2023-11-17T06:18:38.187Z,2.10
2023-11-17T06:21:05.935Z,2.03
2023-11-17T06:23:33.812Z,1.92
2023-11-17T06:26:01.281Z,1.83
2023-11-17T06:28:29.551Z,1.76
2023-11-17T06:30:57.115Z,1.85
2023-11-17T06:33:24.610Z,1.97
2023-11-17T06:35:52.087Z,2.03
2023-11-17T06:38:19.677Z,2.07
2023-11-17T06:40:47.258Z,2.02
2023-11-17T06:43:15.776Z,2.01
2023-11-17T06:45:43.304Z,2.14
2023-11-17T06:48:10.947Z,2.20
2023-11-17T06:50:38.649Z,2.21
2023-11-17T06:53:06.153Z,2.19
2023-11-17T06:55:33.648Z,2.15
2023-11-17T06:58:01.248Z,2.18
2023-11-17T07:00:29.395Z,2.28
2023-11-17T07:02:57.170Z,2.30
2023-11-17T07:05:26.139Z,2.24
2023-11-17T07:07:55.092Z,2.16
2023-11-17T07:10:26.679Z,2.12
2023-11-17T07:12:54.244Z,2.18
2023-11-17T07:15:23.505Z,2.35
2023-11-17T07:17:53.416Z,2.48
2023-11-17T07:20:23.292Z,2.49
2023-11-17T07:22:50.737Z,2.49
2023-11-17T07:25:18.662Z,2.45
2023-11-17T07:27:46.253Z,2.41
2023-11-17T07:30:14.525Z,2.41
2023-11-17T07:32:42.749Z,2.51
2023-11-17T07:35:10.444Z,2.63
2023-11-17T07:37:38.229Z,2.65
2023-11-17T07:40:07.057Z,2.64
2023-11-17T07:42:34.574Z,2.62
2023-11-17T07:45:04.966Z,2.61
2023-11-17T07:47:35.272Z,2.59
2023-11-17T07:50:08.520Z,2.68
2023-11-17T07:52:36.259Z,2.78
2023-11-17T07:55:04.053Z,2.78
2023-11-17T07:57:31.647Z,2.74
2023-11-17T07:59:59.273Z,2.70
2023-11-17T08:02:26.777Z,2.66
2023-11-17T08:04:56.001Z,2.68
2023-11-17T08:07:23.742Z,2.65
2023-11-17T08:09:51.386Z,2.59
2023-11-17T08:12:20.074Z,2.54
2023-11-17T08:14:47.584Z,2.48
2023-11-17T08:17:15.088Z,2.46
2023-11-17T08:19:42.576Z,2.54
2023-11-17T08:22:10.232Z,2.59
2023-11-17T08:24:37.726Z,2.59
2023-11-17T08:27:05.385Z,2.59
2023-11-17T08:29:32.953Z,2.63
2023-11-17T08:32:00.578Z,2.67
2023-11-17T08:34:28.611Z,2.76
2023-11-17T08:36:56.213Z,2.85
2023-11-17T08:39:28.013Z,2.81
2023-11-17T08:41:56.853Z,2.78
2023-11-17T08:44:24.933Z,2.73
2023-11-17T08:46:53.292Z,2.71
2023-11-17T08:49:22.490Z,2.76
2023-11-17T08:51:51.334Z,2.82
2023-11-17T08:54:19.619Z,2.84
2023-11-17T08:56:49.097Z,2.84
2023-11-17T08:59:16.815Z,2.83
2023-11-17T09:01:44.736Z,2.79
2023-11-17T09:04:13.600Z,2.80
2023-11-17T09:06:41.418Z,2.95
2023-11-17T09:11:47.498Z,3.08
2023-11-17T09:14:15.191Z,3.05
2023-11-17T09:16:49.068Z,3.01
2023-11-17T09:19:17.822Z,2.97
2023-11-17T09:21:45.549Z,2.96
2023-11-17T09:24:13.081Z,3.02
2023-11-17T09:26:40.626Z,3.00
2023-11-17T09:29:08.716Z,2.93
2023-11-17T09:31:36.245Z,2.91
2023-11-17T09:34:04.067Z,2.92
2023-11-17T09:36:31.743Z,3.01
2023-11-17T09:38:59.279Z,3.20
2023-11-17T09:41:26.882Z,3.30
2023-11-17T09:43:59.133Z,3.40
2023-11-17T09:46:30.860Z,3.47
2023-11-17T09:49:00.888Z,3.50
2023-11-17T09:51:29.881Z,3.46
2023-11-17T09:53:57.510Z,3.51
2023-11-17T09:56:25.053Z,3.56
2023-11-17T09:58:54.790Z,3.48
2023-11-17T10:01:23.562Z,3.39
2023-11-17T10:03:51.260Z,3.33
2023-11-17T10:06:19.501Z,3.34
2023-11-17T10:08:47.125Z,3.33
2023-11-17T10:11:14.596Z,3.30
2023-11-17T10:13:42.153Z,3.33
2023-11-17T10:16:09.740Z,3.41
2023-11-17T10:18:38.565Z,3.41
2023-11-17T10:21:06.782Z,3.42
2023-11-17T10:23:35.227Z,3.44
2023-11-17T10:26:04.771Z,3.48
2023-11-17T10:28:32.565Z,3.50
2023-11-17T10:31:06.692Z,3.58
2023-11-17T10:33:35.653Z,3.65
2023-11-17T10:36:12.388Z,3.63
2023-11-17T10:38:40.747Z,3.56
2023-11-17T10:41:18.182Z,3.45
2023-11-17T10:43:50.504Z,3.31
2023-11-17T10:46:27.867Z,3.31
2023-11-17T10:49:02.796Z,3.32
2023-11-17T10:51:31.996Z,3.23
2023-11-17T10:54:13.283Z,3.13
2023-11-17T10:56:42.547Z,3.03
2023-11-17T10:59:10.835Z,2.96
2023-11-17T11:01:38.798Z,3.07
2023-11-17T11:04:17.157Z,3.17
2023-11-17T11:06:45.005Z,3.17
2023-11-17T11:09:18.329Z,3.18
2023-11-17T11:11:52.238Z,3.21
2023-11-17T11:14:22.007Z,3.20
2023-11-17T11:16:50.604Z,3.24
2023-11-17T11:19:24.424Z,3.31
2023-11-17T11:22:02.551Z,3.30
2023-11-17T11:24:39.362Z,3.27
2023-11-17T11:27:08.053Z,3.29
2023-11-17T11:29:42.076Z,3.30
2023-11-17T11:32:11.981Z,3.30
2023-11-17T11:34:40.529Z,3.41
2023-11-17T11:37:12.054Z,3.49
2023-11-17T11:39:40.155Z,3.45
2023-11-17T11:42:08.888Z,3.39
2023-11-17T11:44:36.852Z,3.31
2023-11-17T11:47:05.923Z,3.26
2023-11-17T11:49:35.550Z,3.22
2023-11-17T11:52:11.221Z,3.23
2023-11-17T11:54:39.013Z,3.24
2023-11-17T11:57:27.172Z,3.18
2023-11-17T12:00:07.960Z,3.05
2023-11-17T12:02:54.214Z,2.99
2023-11-17T12:05:24.137Z,3.02
2023-11-17T12:07:51.703Z,3.07
2023-11-17T12:10:19.417Z,3.19
2023-11-17T12:12:49.908Z,3.28
2023-11-17T12:15:19.533Z,3.28
2023-11-17T12:17:47.110Z,3.25
2023-11-17T12:20:41.229Z,3.24
2023-11-17T12:23:09.664Z,3.20
2023-11-17T12:25:38.357Z,3.22
2023-11-17T12:28:06.454Z,3.35
2023-11-17T12:30:37.578Z,3.47
2023-11-17T12:33:05.777Z,3.50
2023-11-17T12:35:33.394Z,3.50
2023-11-17T12:38:01.858Z,3.50
2023-11-17T12:40:30.849Z,3.47
2023-11-17T12:42:59.425Z,3.52
2023-11-17T12:45:29.752Z,3.61
2023-11-17T12:48:02.068Z,3.60
2023-11-17T12:50:42.440Z,3.58
2023-11-17T12:53:11.413Z,3.58
2023-11-17T12:55:47.432Z,3.54
2023-11-17T12:58:15.314Z,3.60
2023-11-17T13:00:43.039Z,3.65
2023-11-17T13:03:10.649Z,3.61
2023-11-17T13:05:38.482Z,3.54
2023-11-17T13:08:06.020Z,3.45
2023-11-17T13:10:33.828Z,3.39
2023-11-17T13:13:01.642Z,3.38
2023-11-17T13:15:30.291Z,3.48
2023-11-17T13:17:59.099Z,3.58
2023-11-17T13:20:26.828Z,3.58
2023-11-17T13:22:57.268Z,3.58
2023-11-17T13:25:27.729Z,3.58
2023-11-17T13:27:55.710Z,3.53
2023-11-17T13:30:23.325Z,3.51
2023-11-17T13:32:53.242Z,3.60
2023-11-17T13:35:21.342Z,3.68
2023-11-17T13:37:54.088Z,3.66
2023-11-17T13:40:31.173Z,3.64
2023-11-17T13:43:00.522Z,3.60
2023-11-17T13:45:28.663Z,3.57
2023-11-17T13:48:01.733Z,3.54
2023-11-17T13:50:29.783Z,3.61
2023-11-17T13:52:59.423Z,3.66
2023-11-17T13:55:28.934Z,3.61
2023-11-17T13:57:57.680Z,3.56
2023-11-17T14:00:25.525Z,3.49
2023-11-17T14:02:53.298Z,3.42
2023-11-17T14:05:21.287Z,3.44
2023-11-17T14:07:49.464Z,3.47
2023-11-17T14:10:19.306Z,3.47
2023-11-17T14:12:48.242Z,3.44
2023-11-17T14:15:18.007Z,3.42
2023-11-17T14:17:45.903Z,3.37
2023-11-17T14:20:17.052Z,3.39
2023-11-17T14:22:44.915Z,3.44
2023-11-17T14:25:13.681Z,3.42
2023-11-17T14:27:42.164Z,3.37
2023-11-17T14:30:10.293Z,3.31
2023-11-17T14:32:39.277Z,3.27
2023-11-17T14:35:08.426Z,3.33
2023-11-17T14:37:36.114Z,3.41
2023-11-17T14:40:11.267Z,3.40
2023-11-17T14:42:38.956Z,3.34
2023-11-17T14:47:40.419Z,3.29
2023-11-17T14:50:21.400Z,3.36
2023-11-17T14:52:49.005Z,3.48
2023-11-17T14:55:23.870Z,3.47
2023-11-17T14:57:51.628Z,3.44
2023-11-17T15:00:21.648Z,3.43
2023-11-17T15:02:50.568Z,3.45
2023-11-17T15:05:22.126Z,3.56
2023-11-17T15:07:50.350Z,3.65
2023-11-17T15:10:20.726Z,3.63
2023-11-17T15:12:50.020Z,3.61
2023-11-17T15:15:29.993Z,3.56
2023-11-17T15:17:59.768Z,3.53
2023-11-17T15:20:34.434Z,3.61
2023-11-17T15:23:02.683Z,3.67
2023-11-17T15:25:37.840Z,3.66
2023-11-17T15:28:14.371Z,3.63
2023-11-17T15:30:48.191Z,3.61
2023-11-17T15:33:17.747Z,3.58
2023-11-17T15:35:46.660Z,3.66
2023-11-17T15:38:14.257Z,3.73
2023-11-17T15:40:42.451Z,3.72
2023-11-17T15:43:10.126Z,3.69
2023-11-17T15:45:37.897Z,3.66
2023-11-17T15:48:05.842Z,3.67
2023-11-17T15:50:33.986Z,3.76
2023-11-17T15:53:01.629Z,3.82
2023-11-17T15:55:29.289Z,3.78
2023-11-17T15:57:56.912Z,3.73
2023-11-17T16:00:25.115Z,3.67
2023-11-17T16:02:53.355Z,3.59
2023-11-17T16:05:23.371Z,3.52
2023-11-17T16:07:53.060Z,3.55
2023-11-17T16:10:23.976Z,3.57
2023-11-17T16:12:53.455Z,3.54
2023-11-17T16:15:22.265Z,3.51
2023-11-17T16:17:56.092Z,3.49
2023-11-17T16:20:27.721Z,3.48
2023-11-17T16:22:55.442Z,3.49
2023-11-17T16:25:23.385Z,3.58
2023-11-17T16:27:52.825Z,3.68
2023-11-17T16:30:21.926Z,3.66
2023-11-17T16:32:51.103Z,3.66
2023-11-17T16:35:28.076Z,3.65
2023-11-17T16:37:56.187Z,3.62
2023-11-17T16:40:25.529Z,3.64
2023-11-17T16:43:09.947Z,3.67
2023-11-17T16:45:41.189Z,3.60
2023-11-17T16:48:09.300Z,3.54
2023-11-17T16:50:39.791Z,3.50
2023-11-17T16:53:10.224Z,3.46
2023-11-17T16:55:38.830Z,3.44
2023-11-17T16:58:06.891Z,3.50
2023-11-17T17:00:36.782Z,3.58
2023-11-17T17:03:06.216Z,3.56
2023-11-17T17:05:37.512Z,3.53
2023-11-17T17:08:08.593Z,3.48
2023-11-17T17:10:38.046Z,3.44
2023-11-17T17:13:05.822Z,3.47
2023-11-17T17:15:34.968Z,3.54
2023-11-17T17:18:07.326Z,3.51
2023-11-17T17:20:39.468Z,3.46
2023-11-17T17:23:08.654Z,3.41
2023-11-17T17:25:41.331Z,3.39
2023-11-17T17:28:14.061Z,3.46
2023-11-17T17:30:42.981Z,3.53
2023-11-17T17:33:13.057Z,3.52
2023-11-17T17:35:41.665Z,3.50
2023-11-17T17:38:13.662Z,3.50
2023-11-17T17:40:42.912Z,3.50
2023-11-17T17:43:12.949Z,3.61
2023-11-17T17:45:41.459Z,3.70
2023-11-17T17:48:09.983Z,3.71
2023-11-17T17:50:38.638Z,3.67
2023-11-17T17:53:07.178Z,3.63
2023-11-17T17:55:36.126Z,3.63
2023-11-17T17:58:03.871Z,3.74
2023-11-17T18:00:32.548Z,3.85
2023-11-17T18:03:01.928Z,3.83
2023-11-17T18:05:31.541Z,3.79
2023-11-17T18:07:59.377Z,3.74
2023-11-17T18:10:27.252Z,3.71
2023-11-17T18:12:55.137Z,3.78
2023-11-17T18:15:23.564Z,3.81
2023-11-17T18:17:52.693Z,3.76
2023-11-17T18:20:25.010Z,3.68
2023-11-17T18:22:54.126Z,3.60
2023-11-17T18:25:24.835Z,3.55
2023-11-17T18:27:55.984Z,3.60
2023-11-17T18:30:25.012Z,3.66
2023-11-17T18:32:53.212Z,3.63
2023-11-17T18:35:25.144Z,3.60
2023-11-17T18:37:55.218Z,3.56
2023-11-17T18:40:28.658Z,3.52
2023-11-17T18:42:59.154Z,3.61
2023-11-17T18:45:28.018Z,3.68
2023-11-17T18:47:56.756Z,3.64
2023-11-17T18:50:25.247Z,3.58
2023-11-17T18:52:55.391Z,3.51
2023-11-17T18:55:23.177Z,3.46
2023-11-17T18:57:51.716Z,3.50
2023-11-17T19:00:21.951Z,3.56
2023-11-17T19:02:53.595Z,3.55
2023-11-17T19:05:22.453Z,3.49
2023-11-17T19:07:50.966Z,3.44
2023-11-17T19:10:21.883Z,3.40
2023-11-17T19:12:51.990Z,3.47
2023-11-17T19:15:21.041Z,3.54
2023-11-17T19:17:49.963Z,3.52
2023-11-17T19:20:17.981Z,3.48
2023-11-17T19:22:46.396Z,3.43
2023-11-17T19:25:15.457Z,3.40
2023-11-17T19:27:46.123Z,3.45
2023-11-17T19:30:15.093Z,3.50
2023-11-17T19:32:45.031Z,3.47
2023-11-17T19:35:15.539Z,3.42
2023-11-17T19:37:44.624Z,3.38
2023-11-17T19:40:14.170Z,3.42
2023-11-17T19:42:43.657Z,3.46
2023-11-17T19:45:21.751Z,3.42
2023-11-17T19:47:51.226Z,3.34
2023-11-17T19:50:20.630Z,3.30
2023-11-17T19:52:50.156Z,3.26
2023-11-17T19:55:26.518Z,3.31
2023-11-17T19:57:54.878Z,3.37
2023-11-17T20:00:26.807Z,3.30
2023-11-17T20:02:55.663Z,3.21
2023-11-17T20:05:24.096Z,3.13
2023-11-17T20:07:54.139Z,3.08
2023-11-17T20:10:22.116Z,3.14
2023-11-17T20:12:50.465Z,3.18
2023-11-17T20:15:19.232Z,3.14
2023-11-17T20:18:04.523Z,3.08
2023-11-17T20:20:52.808Z,2.98
2023-11-17T20:23:23.840Z,2.94
2023-11-17T20:25:52.137Z,2.96
2023-11-17T20:28:21.579Z,3.05
2023-11-17T20:30:49.829Z,3.04
2023-11-17T20:33:17.415Z,3.01
2023-11-17T20:35:45.013Z,2.99
2023-11-17T20:38:12.764Z,2.98
2023-11-17T20:40:40.337Z,3.07
2023-11-17T20:43:14.584Z,3.14
2023-11-17T20:45:43.678Z,3.13
2023-11-17T20:48:11.832Z,3.11
2023-11-17T20:50:39.538Z,3.08
2023-11-17T20:53:10.242Z,3.02
2023-11-17T20:55:38.479Z,3.04
2023-11-17T20:58:08.599Z,3.08
2023-11-17T21:00:44.236Z,3.00
2023-11-17T21:03:12.120Z,2.89
2023-11-17T21:05:50.620Z,2.78
2023-11-17T21:08:18.083Z,2.72
2023-11-17T21:10:46.177Z,2.75
2023-11-17T21:13:14.048Z,2.80
2023-11-17T21:15:41.650Z,2.76
2023-11-17T21:18:09.292Z,2.69
2023-11-17T21:20:37.341Z,2.64
2023-11-17T21:23:05.095Z,2.58
2023-11-17T21:25:37.508Z,2.67
2023-11-17T21:28:08.439Z,2.75
2023-11-17T21:30:35.915Z,2.72
2023-11-17T21:33:05.400Z,2.68
2023-11-17T21:35:33.210Z,2.64
2023-11-17T21:38:00.793Z,2.62
2023-11-17T21:40:29.148Z,2.71
2023-11-17T21:42:58.077Z,2.81
2023-11-17T21:45:25.540Z,2.81
2023-11-17T21:47:54.421Z,2.81
2023-11-17T21:50:22.884Z,2.80
2023-11-17T21:52:55.491Z,2.81
2023-11-17T21:55:23.469Z,2.82
2023-11-17T21:57:51.088Z,2.90
2023-11-17T22:00:19.828Z,3.00
2023-11-17T22:02:49.115Z,2.99
2023-11-17T22:05:18.257Z,2.96
2023-11-17T22:07:45.924Z,2.92
2023-11-17T22:10:13.647Z,2.90
2023-11-17T22:12:49.161Z,2.86
2023-11-17T22:15:20.930Z,2.93
2023-11-17T22:17:49.205Z,3.00
2023-11-17T22:20:19.120Z,2.95
2023-11-17T22:22:51.561Z,2.88
2023-11-17T22:25:23.581Z,2.84
2023-11-17T22:27:52.326Z,2.82
2023-11-17T22:30:24.730Z,2.89
2023-11-17T22:32:54.418Z,2.94
2023-11-17T22:35:22.018Z,2.90
2023-11-17T22:37:54.579Z,2.85
2023-11-17T22:40:24.851Z,2.80
2023-11-17T22:42:53.722Z,2.78
2023-11-17T22:45:23.198Z,2.86
2023-11-17T22:47:55.012Z,2.94
2023-11-17T22:50:23.969Z,2.93
2023-11-17T22:52:55.563Z,2.89
2023-11-17T22:55:24.471Z,2.83
2023-11-17T22:57:52.226Z,2.79
2023-11-17T23:00:38.384Z,2.86
2023-11-17T23:03:12.084Z,2.92
2023-11-17T23:05:43.664Z,2.88
2023-11-17T23:08:13.470Z,2.82
2023-11-17T23:10:42.689Z,2.76
2023-11-17T23:13:18.192Z,2.73
2023-11-17T23:15:46.905Z,2.79
2023-11-17T23:18:15.083Z,2.86
2023-11-17T23:20:43.043Z,2.82
2023-11-17T23:23:10.509Z,2.76
2023-11-17T23:25:39.033Z,2.71
2023-11-17T23:28:06.904Z,2.68
2023-11-17T23:30:36.410Z,2.74
2023-11-17T23:33:12.268Z,2.81
2023-11-17T23:35:39.847Z,2.79
2023-11-17T23:38:09.193Z,2.72
2023-11-17T23:40:36.880Z,2.69
2023-11-17T23:43:04.942Z,2.67
2023-11-17T23:45:32.803Z,2.72
2023-11-17T23:48:00.349Z,2.83
2023-11-17T23:50:28.919Z,2.83
2023-11-17T23:52:56.375Z,2.78
2023-11-17T23:55:23.837Z,2.72
2023-11-17T23:57:51.259Z,2.67
